createdAt,value
2022-11-01T00:19:23.798Z,79.70
2022-11-01T00:39:31.467Z,66.84
2022-11-01T00:59:35.066Z,22.15
2022-11-01T01:19:40.584Z,42.33
2022-11-01T01:39:46.359Z,36.71
2022-11-01T01:59:52.559Z,46.78
2022-11-01T02:19:58.291Z,118.32
2022-11-01T02:40:04.556Z,63.25
2022-11-01T03:00:10.353Z,84.29
2022-11-01T03:20:16.105Z,48.58
2022-11-01T03:40:21.856Z,26.84
2022-11-01T04:01:23.780Z,115.21
2022-11-01T04:20:29.365Z,87.62
2022-11-01T04:40:35.141Z,74.67
2022-11-01T05:00:40.928Z,77.58
2022-11-01T05:20:46.676Z,96.53
2022-11-01T05:40:52.439Z,107.42
2022-11-01T06:00:58.639Z,77.92
2022-11-01T06:21:04.372Z,64.57
2022-11-01T06:41:10.181Z,27.14
2022-11-01T07:01:16.141Z,38.17
2022-11-01T07:21:21.711Z,19.12
2022-11-01T07:41:27.456Z,12.84
2022-11-01T08:01:33.420Z,12.95
2022-11-01T08:21:39.440Z,16.15
2022-11-01T08:41:45.176Z,19.13
2022-11-01T09:01:51.049Z,17.84
2022-11-01T09:21:57.118Z,17.76
2022-11-01T09:42:02.834Z,13.86
2022-11-01T10:02:10.032Z,13.33
2022-11-01T10:22:14.257Z,18.93
2022-11-01T10:42:20.453Z,21.33
2022-11-01T11:02:26.290Z,21.71
2022-11-01T11:22:31.959Z,20.61
2022-11-01T11:42:39.025Z,22.09
2022-11-01T12:02:44.823Z,23.61
2022-11-01T12:22:50.525Z,25.02
2022-11-01T12:42:56.236Z,24.85
2022-11-01T13:03:02.677Z,23.89
2022-11-01T13:23:07.621Z,21.81
2022-11-01T13:43:13.340Z,21.15
2022-11-01T14:03:19.140Z,21.15
2022-11-01T14:23:24.843Z,21.82
2022-11-01T14:43:30.552Z,24.80
2022-11-01T15:03:36.741Z,21.89
2022-11-01T15:23:42.942Z,23.12
2022-11-01T15:43:48.677Z,23.22
2022-11-01T16:03:54.406Z,24.53
2022-11-01T16:24:02.850Z,27.64
2022-11-01T16:44:05.440Z,26.57
2022-11-01T17:04:11.218Z,29.61
2022-11-01T17:24:17.451Z,40.01
2022-11-01T17:44:23.209Z,33.87
2022-11-01T18:04:34.060Z,33.54
2022-11-01T18:24:35.130Z,27.31
2022-11-01T18:44:40.896Z,28.47
2022-11-01T19:04:46.659Z,31.79
2022-11-01T19:24:52.850Z,23.78
2022-11-01T19:44:58.616Z,29.24
2022-11-01T20:05:11.204Z,28.41
2022-11-01T20:25:06.945Z,33.35
2022-11-01T20:45:12.692Z,26.17
2022-11-01T21:05:18.471Z,55.66
2022-11-01T21:25:24.210Z,61.68
2022-11-01T21:45:29.981Z,52.61
2022-11-01T22:05:36.348Z,92.80
2022-11-01T22:25:42.248Z,62.96
2022-11-01T22:45:48.476Z,34.29
2022-11-01T23:05:54.304Z,54.05
2022-11-01T23:26:00.485Z,58.48
2022-11-01T23:46:06.282Z,48.82
